Latest Weather Observations for Kowanyama

IDQ60801

Issued at 1:32 pm EST Wednesday 22 February 2017 (issued every 30 minutes, with the page automatically refreshed every 10 minutes)

About weather observations | Map of weather stations | Latest weather observations for QLD | Other Formats
Station Details ID: 029038 Name: KOWANYAMA AIRPORT Lat: -15.48 Lon: 141.75 Height: 9.6 m
Data from the previous 72 hours. | See also: Recent months at Kowanyama
Date/Time
EST
Temp
°C
App
Temp
°C
Dew
Point
°C
Rel
Hum
%
Delta-T
°C
Wind Press
QNH
hPa
Press
MSL
hPa
Rain since
9am
mm
Dir  Spd
km/h
Gust
km/h
Spd
kts
Gust
kts
22/01:00pm 32.5 35.2 23.4 58 6.3 NNE 15 22 8 12 1009.7 1009.6 0.0
22/12:30pm 31.8 34.2 23.6 62 5.7 N 17 26 9 14 1010.0 1009.9 0.0
22/12:00pm 31.6 34.7 24.2 65 5.2 NNE 15 22 8 12 1010.4 1010.3 0.0
22/11:30am 31.8 34.7 23.9 63 5.5 NNE 15 24 8 13 1010.6 1010.5 0.0
22/11:00am 31.2 34.3 23.6 64 5.3 NNE 13 20 7 11 1010.7 1010.6 0.0
22/10:30am 30.7 33.0 23.4 65 5.0 NE 17 26 9 14 1011.1 1011.0 0.0
22/10:00am 30.1 33.1 24.0 70 4.2 NNE 15 22 8 12 1011.5 1011.4 0.0
22/09:30am 29.5 32.4 23.9 72 3.9 NE 15 24 8 13 1011.7 1011.6 0.0
22/09:00am 29.0 32.3 23.9 74 3.5 NE 13 20 7 11 1011.5 1011.4 0.0
22/08:30am 28.0 31.3 23.2 75 3.3 NNE 11 19 6 10 1011.3 1011.2 0.0
22/08:00am 27.2 30.6 23.4 80 2.6 NE 11 17 6 9 1010.9 1010.8 0.0
22/07:30am 26.1 29.4 23.2 84 2.0 NE 11 17 6 9 1010.7 1010.6 0.0
22/07:00am 25.0 29.2 23.4 91 1.1 NE 7 11 4 6 1010.3 1010.2 0.0
22/06:30am 24.7 28.8 23.3 92 1.0 NE 7 9 4 5 1010.3 1010.2 0.0
22/06:00am 24.8 29.0 23.4 92 1.0 NNE 7 11 4 6 1010.3 1010.2 0.0
22/05:30am 24.8 29.0 23.4 92 1.0 NE 7 11 4 6 1010.2 1010.1 0.0
22/05:00am 24.9 29.0 23.3 91 1.1 NNE 7 9 4 5 1009.9 1009.8 0.0
22/04:30am 25.1 28.8 23.3 90 1.2 NE 9 11 5 6 1009.4 1009.3 0.0
22/04:00am 25.3 29.5 23.5 90 1.2 NNE 7 13 4 7 1009.4 1009.3 0.0
22/03:30am 25.4 29.2 23.5 89 1.3 NE 9 13 5 7 1009.2 1009.1 0.0
22/03:00am 25.5 29.8 23.6 89 1.3 NE 7 13 4 7 1009.2 1009.1 0.0
22/02:30am 25.5 29.3 23.4 88 1.4 NE 9 13 5 7 1009.3 1009.2 0.0
22/02:00am 25.9 29.4 23.6 87 1.6 NE 11 17 6 9 1009.6 1009.5 0.0
22/01:30am 26.0 29.7 23.9 88 1.4 NE 11 17 6 9 1010.1 1010.0 0.0
22/01:00am 26.0 29.6 23.7 87 1.6 ENE 11 17 6 9 1010.5 1010.4 0.0
22/12:30am 26.0 30.1 23.9 88 1.4 NE 9 15 5 8 1010.8 1010.7 0.0
22/12:00am 26.2 30.3 23.9 87 1.6 ENE 9 13 5 7 1011.1 1011.0 0.0
 
Date/Time
EST
Temp
°C
App
Temp
°C
Dew
Point
°C
Rel
Hum
%
Delta-T
°C
Wind Press
QNH
hPa
Press
MSL
hPa
Rain since
9am
mm
Dir  Spd
km/h
Gust
km/h
Spd
kts
Gust
kts
21/11:30pm 26.3 30.4 24.0 87 1.6 NE 9 11 5 6 1011.3 1011.2 0.0
21/11:00pm 26.2 30.4 24.1 88 1.4 NE 9 17 5 9 1011.1 1011.0 0.0
21/10:30pm 26.4 31.2 24.1 87 1.6 NE 6 7 3 4 1011.0 1010.9 0.0
21/10:00pm 26.5 31.3 24.2 87 1.6 NE 6 9 3 5 1011.0 1010.9 0.0
21/09:30pm 26.6 31.5 24.3 87 1.6 NE 6 7 3 4 1010.8 1010.7 0.0
21/09:00pm 27.1 33.4 24.7 87 1.7 CALM 0 4 0 2 1010.5 1010.4 0.0
21/08:30pm 27.5 33.7 24.6 84 2.0 CALM 0 0 0 0 1010.4 1010.3 0.0
21/08:00pm 27.8 33.6 24.0 80 2.6 CALM 0 0 0 0 1010.1 1010.0 0.0
21/07:30pm 28.1 34.2 24.5 81 2.5 CALM 0 0 0 0 1009.7 1009.6 0.0
21/07:00pm 28.3 33.0 23.9 77 3.0 N 6 9 3 5 1009.5 1009.4 0.0
21/06:30pm 29.2 33.1 23.6 72 3.9 N 9 15 5 8 1009.0 1008.9 0.0
21/06:00pm 29.4 32.8 23.4 70 4.1 NNE 11 19 6 10 1008.6 1008.5 0.0
21/05:30pm 29.9 32.9 23.3 67 4.5 NNE 13 19 7 10 1008.3 1008.2 0.0
21/05:00pm 30.2 34.2 24.4 71 4.1 N 11 20 6 11 1008.1 1008.0 0.0
21/04:30pm 30.6 32.8 23.3 65 5.0 N 17 26 9 14 1007.7 1007.6 0.0
21/04:00pm 31.3 34.9 24.4 66 4.8 N 13 22 7 12 1007.6 1007.5 0.0
21/03:30pm 31.2 33.2 23.6 64 5.3 N 19 28 10 15 1007.8 1007.7 0.0
21/03:00pm 31.2 33.6 24.3 66 4.8 NNE 19 30 10 16 1007.8 1007.7 0.0
21/02:30pm 30.9 33.0 24.1 67 4.7 N 20 30 11 16 1008.1 1008.0 0.0
21/02:00pm 30.8 33.8 24.7 70 4.3 NNE 17 30 9 16 1008.4 1008.3 0.0
21/01:30pm 30.9 34.7 25.3 72 4.0 NNE 15 28 8 15 1009.0 1008.9 0.0
21/01:00pm 29.9 32.8 24.5 73 3.8 N 17 26 9 14 1009.8 1009.7 0.0
21/12:30pm 30.0 33.7 25.1 75 3.4 N 15 28 8 15 1010.4 1010.3 0.0
21/12:00pm 29.4 34.1 25.6 80 2.7 NNE 11 19 6 10 1010.7 1010.6 0.0
21/11:30am 29.0 31.8 24.3 76 3.3 NNE 17 28 9 15 1010.9 1010.8 0.0
21/11:00am 28.4 31.1 24.2 78 2.9 NNE 17 24 9 13 1011.0 1010.9 0.0
21/10:30am 28.2 31.1 24.4 80 2.6 NNE 17 28 9 15 1010.9 1010.8 0.0
21/10:00am 28.0 30.9 24.4 81 2.5 NNE 17 30 9 16 1010.8 1010.7 0.0
21/09:30am 28.0 30.9 24.4 81 2.5 NE 17 28 9 15 1010.5 1010.4 0.0
21/09:02am 26.7 30.5 24.7 89 1.4 NE 13 22 7 12 1010.3 1010.2 0.0
21/09:00am 26.5 30.2 24.5 89 1.4 NE 13 22 7 12 1010.3 1010.2 13.2
21/08:30am 25.9 29.0 24.1 90 1.2 NNE 15 24 8 13 1010.2 1010.1 13.2
21/08:26am 25.9 29.3 24.1 90 1.2 NNE 13 24 7 13 1010.2 1010.1 13.2
21/08:00am 26.0 31.0 24.8 93 0.8 NNE 7 13 4 7 1010.0 1009.9 13.2
21/07:30am 25.0 29.6 24.1 95 0.6 ENE 7 11 4 6 1009.7 1009.6 13.2
21/07:00am 24.8 29.4 24.1 96 0.5 E 7 11 4 6 1009.2 1009.1 13.0
21/06:43am 24.7 29.2 24.0 96 0.5 ENE 7 11 4 6 1008.9 1008.8 13.0
21/06:30am 24.7 28.8 24.0 96 0.5 E 9 15 5 8 1008.8 1008.7 12.8
21/06:04am 24.9 29.4 24.0 95 0.6 NE 7 11 4 6 1008.7 1008.6 9.8
21/06:00am 24.9 29.4 24.0 95 0.6 NE 7 11 4 6 1008.6 1008.5 9.6
21/05:30am 24.9 29.6 24.0 95 0.6 ENE 6 9 3 5 1008.2 1008.1 9.6
21/05:00am 24.8 28.9 23.9 95 0.6 ENE 9 13 5 7 1007.8 1007.7 9.6
21/04:59am 24.8 28.9 23.9 95 0.6 ENE 9 13 5 7 1007.8 1007.7 9.6
21/04:38am 24.8 29.3 23.9 95 0.6 NE 7 11 4 6 1008.0 1007.9 8.2
21/04:30am 24.8 29.3 23.9 95 0.6 ENE 7 11 4 6 1008.0 1007.9 6.8
21/04:00am 24.7 29.1 23.8 95 0.6 NE 7 11 4 6 1007.9 1007.8 5.8
21/03:30am 24.8 28.9 23.9 95 0.6 ENE 9 13 5 7 1007.7 1007.6 5.4
21/03:00am 24.7 28.7 23.7 94 0.7 ENE 9 15 5 8 1007.9 1007.8 4.4
21/02:33am 24.8 28.3 23.6 93 0.8 NE 11 17 6 9 1008.2 1008.1 4.2
21/02:30am 24.8 27.9 23.6 93 0.8 NE 13 28 7 15 1008.2 1008.1 4.2
21/02:17am 24.9 28.4 23.5 92 1.0 NE 11 17 6 9 1008.3 1008.2 3.4
21/02:00am 25.3 28.8 23.5 90 1.2 NE 11 19 6 10 1008.4 1008.3 2.4
21/01:30am 25.6 29.1 23.5 88 1.4 ENE 11 15 6 8 1008.3 1008.2 2.2
21/01:00am 25.5 29.3 23.4 88 1.4 ENE 9 15 5 8 1008.7 1008.6 2.2
21/12:30am 25.5 28.9 23.4 88 1.4 NE 11 20 6 11 1008.8 1008.7 2.2
21/12:00am 25.4 29.2 23.5 89 1.3 E 9 13 5 7 1009.0 1008.9 2.2
 
Date/Time
EST
Temp
°C
App
Temp
°C
Dew
Point
°C
Rel
Hum
%
Delta-T
°C
Wind Press
QNH
hPa
Press
MSL
hPa
Rain since
9am
mm
Dir  Spd
km/h
Gust
km/h
Spd
kts
Gust
kts
20/11:30pm 25.6 29.3 23.3 87 1.6 ENE 9 13 5 7 1009.1 1009.0 2.2
20/11:00pm 25.7 29.1 23.4 87 1.6 ENE 11 17 6 9 1008.7 1008.6 2.2
20/10:30pm 25.9 29.9 23.8 88 1.4 NE 9 13 5 7 1009.1 1009.0 2.2
20/10:00pm 26.0 29.8 24.0 89 1.4 ENE 11 15 6 8 1009.0 1008.9 2.2
20/09:30pm 25.9 30.4 23.9 89 1.4 ENE 7 11 4 6 1008.9 1008.8 2.2
20/09:00pm 26.0 30.0 23.7 87 1.6 NNE 9 13 5 7 1008.5 1008.4 2.2
20/08:30pm 26.0 29.6 23.7 87 1.6 NNE 11 17 6 9 1008.3 1008.2 2.2
20/08:00pm 26.1 29.7 23.8 87 1.6 NNE 11 17 6 9 1008.3 1008.2 2.2
20/07:30pm 26.1 30.1 23.8 87 1.6 NE 9 13 5 7 1007.5 1007.4 2.2
20/07:00pm 26.1 29.4 23.8 87 1.6 NE 13 20 7 11 1007.4 1007.3 2.2
20/06:30pm 26.3 29.7 24.0 87 1.6 NNE 13 17 7 9 1007.2 1007.1 2.2
20/06:00pm 26.6 30.0 24.1 86 1.7 NNE 13 20 7 11 1007.0 1006.9 2.2
20/05:30pm 26.8 31.1 24.3 86 1.7 NNE 9 15 5 8 1006.4 1006.3 2.2
20/05:00pm 26.6 31.1 24.6 89 1.4 NNE 9 13 5 7 1006.2 1006.1 2.2
20/04:30pm 26.3 30.7 24.5 90 1.2 N 9 15 5 8 1006.4 1006.3 2.2
20/04:00pm 25.7 28.7 23.4 87 1.6 N 13 22 7 12 1006.2 1006.1 2.0
20/03:30pm 26.7 30.6 24.9 90 1.3 N 13 20 7 11 1006.5 1006.4 1.2
20/03:00pm 27.3 29.0 24.6 85 1.9 NW 24 39 13 21 1006.0 1005.9 0.0
20/02:30pm 31.4 34.6 23.0 61 5.8 N 11 20 6 11 1006.1 1006.0 0.0
20/02:00pm 31.7 34.4 23.5 62 5.7 N 15 26 8 14 1006.1 1006.0 0.0
20/01:30pm 32.3 35.9 24.3 62 5.6 N 13 22 7 12 1006.4 1006.3 0.0
20/01:00pm 31.7 35.6 24.3 65 5.2 NNE 11 20 6 11 1007.2 1007.1 0.0
20/12:30pm 32.0 35.4 24.6 65 5.2 NNE 15 24 8 13 1007.6 1007.5 0.0
20/12:00pm 31.2 34.1 23.8 64 5.1 NE 15 22 8 12 1008.0 1007.9 0.0
20/11:30am 31.2 34.4 24.3 66 4.8 NE 15 24 8 13 1008.3 1008.2 0.0
20/11:00am 30.1 32.8 23.5 67 4.6 NE 15 24 8 13 1008.3 1008.2 0.0
20/10:30am 30.1 34.0 24.3 71 4.0 NE 11 17 6 9 1008.2 1008.1 0.0
20/10:00am 28.6 31.8 23.7 75 3.4 NNE 13 20 7 11 1008.4 1008.3 0.0
20/09:30am 28.1 31.0 23.9 78 2.9 NE 15 22 8 12 1008.6 1008.5 0.0
20/09:00am 27.2 31.5 24.3 84 2.0 NE 9 15 5 8 1008.7 1008.6 16.6
20/08:30am 26.2 29.7 23.5 85 1.8 ENE 11 17 6 9 1008.3 1008.2 16.6
20/08:00am 25.8 29.8 23.8 89 1.4 ENE 9 15 5 8 1008.3 1008.2 16.6
20/07:30am 25.2 29.3 24.0 93 0.8 NE 9 15 5 8 1008.4 1008.3 16.6
20/07:00am 24.8 28.8 23.8 94 0.7 NE 9 11 5 6 1008.2 1008.1 16.6
20/06:30am 24.7 28.7 23.7 94 0.7 ENE 9 13 5 7 1007.9 1007.8 16.6
20/06:00am 24.8 28.7 23.6 93 0.8 ENE 9 13 5 7 1007.5 1007.4 16.6
20/05:30am 24.7 28.5 23.5 93 0.8 ENE 9 13 5 7 1007.1 1007.0 16.6
20/05:00am 24.7 28.7 23.7 94 0.7 ENE 9 15 5 8 1006.9 1006.8 16.6
20/04:30am 24.7 28.8 24.0 96 0.5 ENE 9 15 5 8 1006.7 1006.6 16.6
20/04:13am 24.6 28.7 23.9 96 0.5 E 9 13 5 7 1006.9 1006.8 16.6
20/04:00am 24.6 29.1 23.9 96 0.5 E 7 15 4 8 1007.0 1006.9 16.6
20/03:43am 24.6 29.1 23.9 96 0.5 ESE 7 13 4 7 1007.0 1006.9 16.6
20/03:30am 24.6 28.6 23.7 95 0.6 E 9 11 5 6 1007.1 1007.0 16.6
20/03:00am 24.7 28.5 23.5 93 0.8 E 9 15 5 8 1007.1 1007.0 16.6
20/02:30am 24.8 28.2 23.4 92 1.0 ESE 11 17 6 9 1007.1 1007.0 16.6
20/02:09am 25.0 28.5 23.6 92 1.0 ESE 11 19 6 10 1007.2 1007.1 16.6
20/02:00am 25.0 28.3 23.8 93 0.8 ESE 13 17 7 9 1007.2 1007.1 16.6
20/01:30am 25.2 28.1 24.5 96 0.5 ESE 17 26 9 14 1007.5 1007.4 16.6
20/01:00am 25.2 28.7 24.9 98 0.2 ESE 15 22 8 12 1008.2 1008.1 16.6
20/12:30am 25.4 29.3 24.9 97 0.3 ESE 13 20 7 11 1008.9 1008.8 16.6
20/12:00am 25.4 30.0 25.4 100 0.0 ESE 11 17 6 9 1009.1 1009.0 16.6
 
Date/Time
EST
Temp
°C
App
Temp
°C
Dew
Point
°C
Rel
Hum
%
Delta-T
°C
Wind Press
QNH
hPa
Press
MSL
hPa
Rain since
9am
mm
Dir  Spd
km/h
Gust
km/h
Spd
kts
Gust
kts
19/11:30pm 25.1 29.0 24.8 98 0.2 ESE 13 15 7 8 1009.3 1009.2 16.4
19/11:00pm 25.0 29.1 24.5 97 0.3 ESE 11 19 6 10 1009.3 1009.2 16.4
19/10:30pm 25.6 30.8 25.1 97 0.3 ENE 7 11 4 6 1009.7 1009.6 16.4
19/10:00pm 26.1 31.6 25.6 97 0.4 ENE 7 11 4 6 1009.1 1009.0 15.2
19/09:30pm 26.4 31.8 25.5 95 0.6 ESE 7 11 4 6 1008.6 1008.5 14.4
19/09:00pm 26.6 32.2 25.7 95 0.6 ESE 7 11 4 6 1008.6 1008.5 14.0
19/08:30pm 26.3 31.7 25.4 95 0.6 E 7 11 4 6 1008.6 1008.5 14.0
19/08:00pm 26.0 31.3 25.0 94 0.7 NE 6 7 3 4 1008.8 1008.7 14.0
19/07:30pm 26.0 32.5 25.0 94 0.7 CALM 0 6 0 3 1008.2 1008.1 14.0
19/07:12pm 25.7 30.7 24.5 93 0.8 NE 6 7 3 4 1007.9 1007.8 14.0
19/07:00pm 25.5 29.8 23.7 90 1.2 NNW 7 15 4 8 1007.8 1007.7 13.4
19/06:47pm 26.5 30.8 24.3 88 1.5 NW 9 20 5 11 1007.5 1007.4 10.0
19/06:30pm 27.9 34.4 25.1 85 2.0 CALM 0 0 0 0 1006.8 1006.7 9.2
19/06:00pm 28.1 33.7 24.9 83 2.2 N 4 7 2 4 1006.8 1006.7 9.2
19/05:30pm 27.9 32.8 24.7 83 2.2 N 7 11 4 6 1006.8 1006.7 9.2
19/05:00pm 27.5 32.8 25.3 88 1.5 N 7 11 4 6 1006.3 1006.2 9.2
19/04:30pm 27.0 31.7 25.0 89 1.4 N 9 13 5 7 1006.5 1006.4 9.2
19/04:00pm 26.3 31.3 24.5 90 1.2 NNW 6 9 3 5 1006.4 1006.3 9.2
19/03:37pm 26.0 29.9 24.2 90 1.2 NNW 11 20 6 11 1006.7 1006.6 9.0
19/03:30pm 26.1 30.0 24.3 90 1.2 NNW 11 20 6 11 1006.8 1006.7 8.8
19/03:19pm 26.3 28.9 24.0 87 1.6 NW 17 33 9 18 1006.7 1006.6 7.8
19/03:00pm 27.6 32.7 24.6 84 2.1 NW 6 11 3 6 1006.3 1006.2 6.2
19/02:47pm 27.5 32.4 24.6 84 2.0 WNW 7 11 4 6 1006.4 1006.3 6.2
19/02:30pm 26.2 27.6 22.5 80 2.5 NW 19 30 10 16 1006.7 1006.6 6.2
19/02:28pm 26.0 27.7 22.3 80 2.5 NW 17 30 9 16 1007.0 1006.9 5.2
19/02:00pm 28.0 31.0 23.4 76 3.2 NNE 13 20 7 11 1007.0 1006.9 2.6

Other Formats:

Comma delimited format used in spreadsheet applications
http://www.bom.gov.au/fwo/IDQ60801/IDQ60801.94268.axf

JavaScript Object Notation format (JSON) in row-major order
http://www.bom.gov.au/fwo/IDQ60801/IDQ60801.94268.json